createdAt,value
2023-02-11T00:01:39.758Z,2.66
2023-02-11T00:06:43.211Z,2.66
2023-02-11T00:11:46.150Z,2.67
2023-02-11T00:16:49.072Z,2.66
2023-02-11T00:21:52.019Z,2.67
2023-02-11T00:26:54.960Z,2.67
2023-02-11T00:31:58.170Z,2.67
2023-02-11T00:37:01.648Z,2.68
2023-02-11T00:42:04.883Z,2.70
2023-02-11T00:47:07.790Z,2.71
2023-02-11T00:52:10.752Z,2.72
2023-02-11T00:57:13.724Z,2.71
2023-02-11T01:02:17.275Z,2.70
2023-02-11T01:07:20.183Z,2.69
2023-02-11T01:12:24.315Z,2.69
2023-02-11T01:17:27.307Z,2.69
2023-02-11T01:22:30.303Z,2.68
2023-02-11T01:27:33.317Z,2.68
2023-02-11T01:32:36.624Z,2.68
2023-02-11T01:37:39.642Z,2.69
2023-02-11T01:42:43.812Z,2.69
2023-02-11T01:47:46.778Z,2.66
2023-02-11T01:52:49.955Z,2.65
2023-02-11T01:57:57.300Z,2.63
2023-02-11T02:03:18.150Z,2.61
2023-02-11T02:08:40.847Z,2.62
2023-02-11T02:13:45.074Z,2.61
2023-02-11T02:19:32.820Z,2.60
2023-02-11T02:25:01.235Z,2.58
2023-02-11T02:30:10.126Z,2.56
2023-02-11T02:35:23.142Z,2.55
2023-02-11T02:40:33.643Z,2.52
2023-02-11T02:45:36.844Z,2.49
2023-02-11T02:50:39.847Z,2.46
2023-02-11T02:56:18.035Z,2.44
2023-02-11T03:01:56.504Z,2.44
2023-02-11T03:07:33.060Z,2.43
2023-02-11T03:12:38.675Z,2.40
2023-02-11T03:17:48.370Z,2.40
2023-02-11T03:23:05.031Z,2.40
2023-02-11T03:28:27.964Z,2.41
2023-02-11T03:33:43.151Z,2.39
2023-02-11T03:38:52.287Z,2.39
2023-02-11T03:43:59.553Z,2.39
2023-02-11T03:49:13.538Z,2.39
2023-02-11T03:54:24.114Z,2.40
2023-02-11T03:59:28.459Z,2.41
2023-02-11T04:04:31.622Z,2.41
2023-02-11T04:09:35.482Z,2.41
2023-02-11T04:14:38.669Z,2.41
2023-02-11T04:19:41.828Z,2.40
2023-02-11T04:24:44.738Z,2.40
2023-02-11T04:29:47.673Z,2.42
2023-02-11T04:34:50.769Z,2.42
2023-02-11T04:39:53.693Z,2.42
2023-02-11T04:44:56.615Z,2.43
2023-02-11T04:49:59.670Z,2.42
2023-02-11T04:55:02.786Z,2.40
2023-02-11T05:00:07.113Z,2.42
2023-02-11T05:05:10.256Z,2.40
2023-02-11T05:10:13.164Z,2.36
2023-02-11T05:15:16.392Z,2.30
2023-02-11T05:20:19.566Z,2.21
2023-02-11T05:25:22.665Z,2.13
2023-02-11T05:30:25.867Z,2.08
2023-02-11T05:35:28.943Z,2.05
2023-02-11T05:40:31.873Z,2.05
2023-02-11T05:45:35.012Z,2.04
2023-02-11T05:50:38.107Z,2.02
2023-02-11T05:55:41.189Z,2.00
2023-02-11T06:00:44.237Z,1.98
2023-02-11T06:05:47.555Z,1.96
2023-02-11T06:10:50.569Z,1.97
2023-02-11T06:16:02.144Z,1.97
2023-02-11T06:21:10.516Z,1.96
2023-02-11T06:26:23.710Z,1.95
2023-02-11T06:31:27.604Z,1.97
2023-02-11T06:36:30.972Z,1.97
2023-02-11T06:41:34.499Z,1.99
2023-02-11T06:46:37.466Z,2.03
2023-02-11T06:51:41.141Z,2.07
2023-02-11T06:56:44.187Z,2.08
2023-02-11T07:01:47.946Z,2.08
2023-02-11T07:06:50.888Z,2.08
2023-02-11T07:11:53.860Z,2.10
2023-02-11T07:16:56.837Z,2.16
2023-02-11T07:21:59.882Z,2.18
2023-02-11T07:27:02.875Z,2.19
2023-02-11T07:32:07.188Z,2.21
2023-02-11T07:37:12.692Z,2.24
2023-02-11T07:42:17.287Z,2.25
2023-02-11T07:47:21.169Z,2.22
2023-02-11T07:52:24.378Z,2.20
2023-02-11T07:57:27.920Z,2.21
2023-02-11T08:02:31.154Z,2.16
2023-02-11T08:07:37.257Z,2.15
2023-02-11T08:12:40.876Z,2.16
2023-02-11T08:17:46.297Z,2.17
2023-02-11T08:22:50.339Z,2.19
2023-02-11T08:27:53.688Z,2.21
2023-02-11T08:32:56.821Z,2.24
2023-02-11T08:37:59.716Z,2.29
2023-02-11T08:43:03.149Z,2.33
2023-02-11T08:48:06.702Z,2.34
2023-02-11T08:53:09.800Z,2.39
2023-02-11T08:58:12.862Z,2.42
2023-02-11T09:03:17.018Z,2.44
2023-02-11T09:08:21.415Z,2.47
2023-02-11T09:13:24.376Z,2.51
2023-02-11T09:18:30.293Z,2.54
2023-02-11T09:23:36.136Z,2.61
2023-02-11T09:28:39.920Z,2.62
2023-02-11T09:33:58.949Z,2.65
2023-02-11T09:39:03.582Z,2.66
2023-02-11T09:44:18.699Z,2.70
2023-02-11T09:49:53.212Z,2.71
2023-02-11T09:55:04.310Z,2.72
2023-02-11T10:00:24.605Z,2.73
2023-02-11T10:05:36.191Z,2.76
2023-02-11T10:10:55.625Z,2.78
2023-02-11T10:16:25.499Z,2.82
2023-02-11T10:21:47.928Z,2.93
2023-02-11T10:26:52.738Z,3.00
2023-02-11T10:31:58.311Z,3.07
2023-02-11T10:37:01.563Z,3.10
2023-02-11T10:42:11.624Z,3.11
2023-02-11T10:47:23.686Z,3.13
2023-02-11T10:52:30.796Z,3.15
2023-02-11T10:57:45.735Z,3.17
2023-02-11T11:03:00.089Z,3.22
2023-02-11T11:08:08.114Z,3.24
2023-02-11T11:13:23.552Z,3.28
2023-02-11T11:18:26.672Z,3.35
2023-02-11T11:23:31.774Z,3.32
2023-02-11T11:28:47.281Z,3.30
2023-02-11T11:33:53.849Z,3.35
2023-02-11T11:39:01.952Z,3.46
2023-02-11T11:44:28.101Z,3.53
2023-02-11T11:49:44.205Z,3.62
2023-02-11T11:54:58.219Z,3.72
2023-02-11T12:00:01.202Z,3.75
2023-02-11T12:05:36.382Z,3.79
2023-02-11T12:11:25.860Z,3.81
2023-02-11T12:17:03.821Z,3.85
2023-02-11T12:22:54.216Z,3.95
2023-02-11T12:28:37.244Z,3.99
2023-02-11T12:34:08.376Z,4.02
2023-02-11T12:39:51.965Z,4.09
2023-02-11T12:45:14.424Z,4.16
2023-02-11T12:50:59.336Z,4.20
2023-02-11T12:56:17.836Z,4.31
2023-02-11T13:01:35.158Z,4.39
2023-02-11T13:06:50.449Z,4.46
2023-02-11T13:12:19.638Z,4.50
2023-02-11T13:18:01.413Z,4.53
2023-02-11T13:23:52.377Z,4.60
2023-02-11T13:29:17.698Z,4.64
2023-02-11T13:34:44.797Z,4.65
2023-02-11T13:40:21.526Z,4.69
2023-02-11T13:45:40.465Z,4.76
2023-02-11T13:50:51.158Z,4.84
2023-02-11T13:56:12.674Z,4.96
2023-02-11T14:02:12.098Z,5.09
2023-02-11T14:07:52.687Z,5.20
2023-02-11T14:13:22.129Z,5.29
2023-02-11T14:19:01.097Z,5.35
2023-02-11T14:24:11.184Z,5.43
2023-02-11T14:29:26.888Z,5.46
2023-02-11T14:34:53.797Z,5.48
2023-02-11T14:40:39.149Z,5.46
2023-02-11T14:45:51.267Z,5.47
2023-02-11T14:51:19.209Z,5.46
2023-02-11T14:56:31.250Z,5.44
2023-02-11T15:01:41.531Z,5.45
2023-02-11T15:06:49.780Z,5.42
2023-02-11T15:11:54.065Z,5.42
2023-02-11T15:17:04.661Z,5.41
2023-02-11T15:22:45.822Z,5.44
2023-02-11T15:27:52.968Z,5.43
2023-02-11T15:33:03.715Z,5.42
2023-02-11T15:38:08.145Z,5.39
2023-02-11T15:43:11.865Z,5.37
2023-02-11T15:48:22.283Z,5.37
2023-02-11T15:53:32.842Z,5.39
2023-02-11T15:58:42.888Z,5.42
2023-02-11T16:03:50.951Z,5.41
2023-02-11T16:09:17.317Z,5.42
2023-02-11T16:14:37.245Z,5.44
2023-02-11T16:19:47.519Z,5.41
2023-02-11T16:24:54.817Z,5.39
2023-02-11T16:29:58.982Z,5.38
2023-02-11T16:35:02.112Z,5.34
2023-02-11T16:40:06.720Z,5.29
2023-02-11T16:45:10.174Z,5.25
2023-02-11T16:50:25.008Z,5.19
2023-02-11T16:55:32.671Z,5.13
2023-02-11T17:00:37.514Z,5.08
2023-02-11T17:05:58.035Z,5.00
2023-02-11T17:11:02.216Z,5.01
2023-02-11T17:16:05.571Z,4.97
2023-02-11T17:21:09.007Z,4.92
2023-02-11T17:26:12.016Z,4.90
2023-02-11T17:31:15.468Z,4.83
2023-02-11T17:36:18.542Z,4.62
2023-02-11T17:41:21.523Z,4.33
2023-02-11T17:46:25.369Z,4.14
2023-02-11T17:51:35.368Z,3.97
2023-02-11T17:56:38.775Z,3.83
2023-02-11T18:01:43.449Z,3.71
2023-02-11T18:06:47.463Z,3.62
2023-02-11T18:11:52.677Z,3.53
2023-02-11T18:16:55.821Z,3.42
2023-02-11T18:22:01.090Z,3.27
2023-02-11T18:27:04.492Z,3.09
2023-02-11T18:32:07.537Z,2.91
2023-02-11T18:37:13.550Z,2.78
2023-02-11T18:42:16.575Z,2.71
2023-02-11T18:47:19.512Z,2.60
2023-02-11T18:52:22.448Z,2.47
2023-02-11T18:57:25.455Z,2.37
2023-02-11T19:02:30.121Z,2.30
2023-02-11T19:07:33.390Z,2.26
2023-02-11T19:12:39.408Z,2.18
2023-02-11T19:17:42.437Z,2.10
2023-02-11T19:22:45.582Z,2.07
2023-02-11T19:27:48.555Z,1.99
2023-02-11T19:32:52.780Z,1.85
2023-02-11T19:37:55.778Z,1.74
2023-02-11T19:42:58.888Z,1.65
2023-02-11T19:48:01.917Z,1.60
2023-02-11T19:53:05.016Z,1.58
2023-02-11T19:58:08.321Z,1.57
2023-02-11T20:03:11.430Z,1.48
2023-02-11T20:08:17.330Z,1.43
2023-02-11T20:13:20.438Z,1.42
2023-02-11T20:18:23.588Z,1.48
2023-02-11T20:23:26.834Z,1.55
2023-02-11T20:28:34.102Z,1.54
2023-02-11T20:33:39.313Z,1.53
2023-02-11T20:38:44.141Z,1.52
2023-02-11T20:44:00.392Z,1.51
2023-02-11T20:49:25.347Z,1.43
2023-02-11T20:54:28.824Z,1.35
2023-02-11T20:59:33.449Z,1.29
2023-02-11T21:04:40.153Z,1.29
2023-02-11T21:09:57.347Z,1.34
2023-02-11T21:15:11.939Z,1.34
2023-02-11T21:20:15.518Z,1.36
2023-02-11T21:25:18.634Z,1.35
2023-02-11T21:30:22.678Z,1.33
2023-02-11T21:35:26.613Z,1.29
2023-02-11T21:40:29.960Z,1.30
2023-02-11T21:45:33.179Z,1.32
2023-02-11T21:50:56.099Z,1.30
2023-02-11T22:02:01.918Z,1.38
2023-02-11T22:07:06.359Z,1.43
2023-02-11T22:12:16.432Z,1.46
2023-02-11T22:17:21.204Z,1.42
2023-02-11T22:22:24.563Z,1.39
2023-02-11T22:27:31.640Z,1.32
2023-02-11T22:32:41.681Z,1.28
2023-02-11T22:37:45.554Z,1.26
2023-02-11T22:42:49.585Z,1.24
2023-02-11T22:47:56.238Z,1.20
2023-02-11T22:53:00.285Z,1.25
2023-02-11T22:58:04.095Z,1.21
2023-02-11T23:03:09.181Z,1.21
2023-02-11T23:08:12.432Z,1.26
2023-02-11T23:13:15.624Z,1.28
2023-02-11T23:18:18.575Z,1.25
2023-02-11T23:23:21.673Z,1.22
2023-02-11T23:28:24.698Z,1.18
2023-02-11T23:33:27.810Z,1.18
2023-02-11T23:38:30.838Z,1.17
2023-02-11T23:43:33.883Z,1.14
2023-02-11T23:48:37.853Z,1.13
2023-02-11T23:53:41.914Z,1.12
2023-02-11T23:58:49.342Z,1.13
